sensor_id;sensor_type;location;lat;lon;timestamp;temperature;humidity
21312;DHT22;18076;52.154;10.570;2023-06-10T10:44:21;28.60;99.90
21312;DHT22;18076;52.154;10.570;2023-06-10T10:46:50;28.90;99.90
21312;DHT22;18076;52.154;10.570;2023-06-10T10:49:17;28.90;99.90
21312;DHT22;18076;52.154;10.570;2023-06-10T10:51:56;28.90;99.90
21312;DHT22;18076;52.154;10.570;2023-06-10T10:54:35;29.00;99.90
21312;DHT22;18076;52.154;10.570;2023-06-10T10:57:13;28.80;99.90
21312;DHT22;18076;52.154;10.570;2023-06-10T10:59:43;28.40;99.90
21312;DHT22;18076;52.154;10.570;2023-06-10T11:02:08;28.30;99.90
21312;DHT22;18076;52.154;10.570;2023-06-10T11:04:35;28.30;99.90
21312;DHT22;18076;52.154;10.570;2023-06-10T11:07:07;28.50;99.90
21312;DHT22;18076;52.154;10.570;2023-06-10T11:09:33;28.80;99.90
21312;DHT22;18076;52.154;10.570;2023-06-10T11:11:59;29.10;99.90
21312;DHT22;18076;52.154;10.570;2023-06-10T11:14:28;29.50;99.90
21312;DHT22;18076;52.154;10.570;2023-06-10T11:16:56;29.80;99.90
21312;DHT22;18076;52.154;10.570;2023-06-10T11:19:32;29.70;99.90
21312;DHT22;18076;52.154;10.570;2023-06-10T11:21:59;29.70;99.90
21312;DHT22;18076;52.154;10.570;2023-06-10T11:24:31;29.90;99.90
21312;DHT22;18076;52.154;10.570;2023-06-10T11:27:17;29.80;99.90
21312;DHT22;18076;52.154;10.570;2023-06-10T11:30:26;29.90;99.90
21312;DHT22;18076;52.154;10.570;2023-06-10T11:32:34;30.10;99.90
21312;DHT22;18076;52.154;10.570;2023-06-10T11:35:02;30.40;99.90
21312;DHT22;18076;52.154;10.570;2023-06-10T11:37:28;30.30;98.80
21312;DHT22;18076;52.154;10.570;2023-06-10T11:39:53;30.00;97.40
21312;DHT22;18076;52.154;10.570;2023-06-10T11:42:19;29.60;98.10
21312;DHT22;18076;52.154;10.570;2023-06-10T11:44:52;29.40;99.00
21312;DHT22;18076;52.154;10.570;2023-06-10T11:47:18;29.50;97.70
21312;DHT22;18076;52.154;10.570;2023-06-10T11:49:44;29.30;98.80
21312;DHT22;18076;52.154;10.570;2023-06-10T11:52:11;29.40;99.10
21312;DHT22;18076;52.154;10.570;2023-06-10T11:54:37;29.30;98.30
21312;DHT22;18076;52.154;10.570;2023-06-10T11:57:03;29.30;98.30
21312;DHT22;18076;52.154;10.570;2023-06-10T11:59:29;29.50;98.80
21312;DHT22;18076;52.154;10.570;2023-06-10T12:01:54;29.70;99.30
21312;DHT22;18076;52.154;10.570;2023-06-10T12:04:20;29.90;99.20
21312;DHT22;18076;52.154;10.570;2023-06-10T12:06:50;30.20;98.50
21312;DHT22;18076;52.154;10.570;2023-06-10T12:09:23;30.50;97.90
21312;DHT22;18076;52.154;10.570;2023-06-10T12:11:50;30.50;97.20
21312;DHT22;18076;52.154;10.570;2023-06-10T12:14:16;30.60;97.70
21312;DHT22;18076;52.154;10.570;2023-06-10T12:16:48;30.70;96.70
21312;DHT22;18076;52.154;10.570;2023-06-10T12:19:13;30.60;96.20
21312;DHT22;18076;52.154;10.570;2023-06-10T12:21:39;30.70;96.20
21312;DHT22;18076;52.154;10.570;2023-06-10T12:24:08;30.80;95.90
21312;DHT22;18076;52.154;10.570;2023-06-10T12:26:41;31.00;96.50
21312;DHT22;18076;52.154;10.570;2023-06-10T12:29:22;31.00;95.40
21312;DHT22;18076;52.154;10.570;2023-06-10T12:32:02;31.20;94.80
21312;DHT22;18076;52.154;10.570;2023-06-10T12:34:34;31.30;94.10
21312;DHT22;18076;52.154;10.570;2023-06-10T12:37:01;31.50;94.40
21312;DHT22;18076;52.154;10.570;2023-06-10T12:39:26;31.60;93.80
21312;DHT22;18076;52.154;10.570;2023-06-10T12:41:52;31.50;92.60
21312;DHT22;18076;52.154;10.570;2023-06-10T12:44:18;31.40;93.80
21312;DHT22;18076;52.154;10.570;2023-06-10T12:46:44;31.40;93.20
21312;DHT22;18076;52.154;10.570;2023-06-10T12:49:19;31.60;93.30
21312;DHT22;18076;52.154;10.570;2023-06-10T12:51:45;31.60;92.10
21312;DHT22;18076;52.154;10.570;2023-06-10T12:54:11;31.70;91.30
21312;DHT22;18076;52.154;10.570;2023-06-10T12:56:38;31.60;90.70
21312;DHT22;18076;52.154;10.570;2023-06-10T12:59:03;31.70;91.50
21312;DHT22;18076;52.154;10.570;2023-06-10T13:01:29;31.70;91.40
21312;DHT22;18076;52.154;10.570;2023-06-10T13:03:56;31.90;91.20
21312;DHT22;18076;52.154;10.570;2023-06-10T13:06:22;32.00;91.00
21312;DHT22;18076;52.154;10.570;2023-06-10T13:08:48;32.10;90.10
21312;DHT22;18076;52.154;10.570;2023-06-10T13:11:14;31.80;90.40
21312;DHT22;18076;52.154;10.570;2023-06-10T13:13:39;31.70;90.00
21312;DHT22;18076;52.154;10.570;2023-06-10T13:16:05;31.60;90.00
21312;DHT22;18076;52.154;10.570;2023-06-10T13:18:30;31.60;90.50
21312;DHT22;18076;52.154;10.570;2023-06-10T13:21:05;31.60;88.30
21312;DHT22;18076;52.154;10.570;2023-06-10T13:23:30;31.70;89.50
21312;DHT22;18076;52.154;10.570;2023-06-10T13:25:57;31.70;88.10
21312;DHT22;18076;52.154;10.570;2023-06-10T13:28:22;31.70;85.50
21312;DHT22;18076;52.154;10.570;2023-06-10T13:30:48;31.60;84.20
21312;DHT22;18076;52.154;10.570;2023-06-10T13:33:13;31.40;84.40
21312;DHT22;18076;52.154;10.570;2023-06-10T13:35:39;31.40;87.10
21312;DHT22;18076;52.154;10.570;2023-06-10T13:38:05;31.50;87.90
21312;DHT22;18076;52.154;10.570;2023-06-10T13:40:32;31.30;88.20
21312;DHT22;18076;52.154;10.570;2023-06-10T13:42:58;31.40;87.80
21312;DHT22;18076;52.154;10.570;2023-06-10T13:45:23;31.30;88.90
21312;DHT22;18076;52.154;10.570;2023-06-10T13:47:50;31.40;87.20
21312;DHT22;18076;52.154;10.570;2023-06-10T13:50:15;31.60;86.30
21312;DHT22;18076;52.154;10.570;2023-06-10T13:52:41;31.60;85.00
21312;DHT22;18076;52.154;10.570;2023-06-10T13:55:06;31.40;85.90
21312;DHT22;18076;52.154;10.570;2023-06-10T13:57:32;31.10;87.20
21312;DHT22;18076;52.154;10.570;2023-06-10T13:59:58;31.30;86.70
21312;DHT22;18076;52.154;10.570;2023-06-10T14:02:23;31.40;86.80
21312;DHT22;18076;52.154;10.570;2023-06-10T14:04:49;31.60;85.50
21312;DHT22;18076;52.154;10.570;2023-06-10T14:07:14;31.50;85.80
21312;DHT22;18076;52.154;10.570;2023-06-10T14:09:40;31.30;85.70
21312;DHT22;18076;52.154;10.570;2023-06-10T14:12:06;31.10;84.40
21312;DHT22;18076;52.154;10.570;2023-06-10T14:14:32;31.20;85.70
21312;DHT22;18076;52.154;10.570;2023-06-10T14:16:58;31.20;86.50
21312;DHT22;18076;52.154;10.570;2023-06-10T14:19:24;31.30;84.60
21312;DHT22;18076;52.154;10.570;2023-06-10T14:21:49;31.20;85.30
21312;DHT22;18076;52.154;10.570;2023-06-10T14:24:15;31.30;83.90
21312;DHT22;18076;52.154;10.570;2023-06-10T14:26:43;31.40;84.00
21312;DHT22;18076;52.154;10.570;2023-06-10T14:29:09;31.60;85.10
21312;DHT22;18076;52.154;10.570;2023-06-10T14:31:35;31.60;83.50
21312;DHT22;18076;52.154;10.570;2023-06-10T14:34:00;31.70;83.30
21312;DHT22;18076;52.154;10.570;2023-06-10T14:36:26;31.90;83.20
21312;DHT22;18076;52.154;10.570;2023-06-10T14:38:51;31.70;82.10
21312;DHT22;18076;52.154;10.570;2023-06-10T14:41:17;31.40;83.70
21312;DHT22;18076;52.154;10.570;2023-06-10T14:43:43;31.30;83.70
21312;DHT22;18076;52.154;10.570;2023-06-10T14:46:08;31.10;83.00
21312;DHT22;18076;52.154;10.570;2023-06-10T14:48:34;31.00;83.20
21312;DHT22;18076;52.154;10.570;2023-06-10T14:51:00;30.90;82.90
21312;DHT22;18076;52.154;10.570;2023-06-10T14:53:25;31.00;83.20
21312;DHT22;18076;52.154;10.570;2023-06-10T14:55:51;31.10;83.80
21312;DHT22;18076;52.154;10.570;2023-06-10T14:58:17;31.30;83.30
21312;DHT22;18076;52.154;10.570;2023-06-10T15:00:42;31.40;81.20
21312;DHT22;18076;52.154;10.570;2023-06-10T15:03:08;31.50;80.30
21312;DHT22;18076;52.154;10.570;2023-06-10T15:05:33;31.60;78.80
21312;DHT22;18076;52.154;10.570;2023-06-10T15:08:07;31.80;80.30
21312;DHT22;18076;52.154;10.570;2023-06-10T15:10:33;31.70;79.80
21312;DHT22;18076;52.154;10.570;2023-06-10T15:12:58;31.60;79.00
21312;DHT22;18076;52.154;10.570;2023-06-10T15:15:24;31.40;80.60
21312;DHT22;18076;52.154;10.570;2023-06-10T15:17:51;31.30;82.50
21312;DHT22;18076;52.154;10.570;2023-06-10T15:20:16;31.00;79.20
21312;DHT22;18076;52.154;10.570;2023-06-10T15:22:42;30.80;80.70
21312;DHT22;18076;52.154;10.570;2023-06-10T15:25:07;30.80;81.50
21312;DHT22;18076;52.154;10.570;2023-06-10T15:27:33;30.70;79.90
21312;DHT22;18076;52.154;10.570;2023-06-10T15:30:01;30.70;80.20
21312;DHT22;18076;52.154;10.570;2023-06-10T15:32:27;30.60;79.10
21312;DHT22;18076;52.154;10.570;2023-06-10T15:34:53;30.20;80.30
21312;DHT22;18076;52.154;10.570;2023-06-10T15:37:19;29.80;81.60
21312;DHT22;18076;52.154;10.570;2023-06-10T15:39:47;29.60;85.00
21312;DHT22;18076;52.154;10.570;2023-06-10T15:42:13;29.00;84.30
21312;DHT22;18076;52.154;10.570;2023-06-10T15:44:38;28.40;85.30
21312;DHT22;18076;52.154;10.570;2023-06-10T15:47:04;27.70;87.10
21312;DHT22;18076;52.154;10.570;2023-06-10T15:49:29;27.30;89.20
21312;DHT22;18076;52.154;10.570;2023-06-10T15:51:55;27.20;90.50
21312;DHT22;18076;52.154;10.570;2023-06-10T15:54:21;26.80;90.80
21312;DHT22;18076;52.154;10.570;2023-06-10T15:56:46;26.40;91.70
21312;DHT22;18076;52.154;10.570;2023-06-10T15:59:12;25.90;93.40
21312;DHT22;18076;52.154;10.570;2023-06-10T16:01:37;25.40;95.70
21312;DHT22;18076;52.154;10.570;2023-06-10T16:04:03;24.80;97.00
21312;DHT22;18076;52.154;10.570;2023-06-10T16:06:29;24.30;98.00
21312;DHT22;18076;52.154;10.570;2023-06-10T16:08:54;23.70;98.90
21312;DHT22;18076;52.154;10.570;2023-06-10T16:11:20;23.40;99.70
21312;DHT22;18076;52.154;10.570;2023-06-10T16:13:47;23.10;99.90
21312;DHT22;18076;52.154;10.570;2023-06-10T16:16:13;23.10;99.90
21312;DHT22;18076;52.154;10.570;2023-06-10T16:18:39;23.10;99.90
21312;DHT22;18076;52.154;10.570;2023-06-10T16:21:04;23.00;99.90
21312;DHT22;18076;52.154;10.570;2023-06-10T16:23:30;23.00;99.90
21312;DHT22;18076;52.154;10.570;2023-06-10T16:25:56;22.80;99.90
21312;DHT22;18076;52.154;10.570;2023-06-10T16:28:21;22.50;99.90
21312;DHT22;18076;52.154;10.570;2023-06-10T16:30:47;22.30;99.90
21312;DHT22;18076;52.154;10.570;2023-06-10T16:33:12;22.00;99.90
21312;DHT22;18076;52.154;10.570;2023-06-10T16:35:38;21.80;99.90
21312;DHT22;18076;52.154;10.570;2023-06-10T16:38:04;21.60;99.90
21312;DHT22;18076;52.154;10.570;2023-06-10T16:40:29;21.50;99.90
21312;DHT22;18076;52.154;10.570;2023-06-10T16:42:55;21.50;99.90
21312;DHT22;18076;52.154;10.570;2023-06-10T16:45:20;21.50;99.90
21312;DHT22;18076;52.154;10.570;2023-06-10T16:47:46;21.50;99.90
21312;DHT22;18076;52.154;10.570;2023-06-10T16:50:12;21.60;99.90
21312;DHT22;18076;52.154;10.570;2023-06-10T16:52:37;21.60;99.90
21312;DHT22;18076;52.154;10.570;2023-06-10T16:55:03;21.80;99.90
21312;DHT22;18076;52.154;10.570;2023-06-10T16:57:29;22.10;99.90
21312;DHT22;18076;52.154;10.570;2023-06-10T16:59:54;22.10;99.90
21312;DHT22;18076;52.154;10.570;2023-06-10T17:02:20;22.10;99.90
21312;DHT22;18076;52.154;10.570;2023-06-10T17:04:46;22.20;99.90
21312;DHT22;18076;52.154;10.570;2023-06-10T17:07:11;22.20;99.90
21312;DHT22;18076;52.154;10.570;2023-06-10T17:09:37;22.20;99.90
21312;DHT22;18076;52.154;10.570;2023-06-10T17:12:02;22.30;99.90
21312;DHT22;18076;52.154;10.570;2023-06-10T17:14:28;22.20;99.90
21312;DHT22;18076;52.154;10.570;2023-06-10T17:16:54;22.20;99.90
21312;DHT22;18076;52.154;10.570;2023-06-10T17:19:20;22.20;99.90
21312;DHT22;18076;52.154;10.570;2023-06-10T17:21:46;22.10;99.90
21312;DHT22;18076;52.154;10.570;2023-06-10T17:24:11;22.10;99.90
21312;DHT22;18076;52.154;10.570;2023-06-10T17:26:37;22.00;99.90
21312;DHT22;18076;52.154;10.570;2023-06-10T17:29:02;22.00;99.90
21312;DHT22;18076;52.154;10.570;2023-06-10T17:31:28;22.00;99.90
21312;DHT22;18076;52.154;10.570;2023-06-10T17:33:53;21.90;99.90
21312;DHT22;18076;52.154;10.570;2023-06-10T17:36:19;22.00;99.90
21312;DHT22;18076;52.154;10.570;2023-06-10T17:38:45;22.00;99.90
21312;DHT22;18076;52.154;10.570;2023-06-10T17:41:10;21.90;99.90
21312;DHT22;18076;52.154;10.570;2023-06-10T17:43:36;21.80;99.90
21312;DHT22;18076;52.154;10.570;2023-06-10T17:46:01;21.80;99.90
21312;DHT22;18076;52.154;10.570;2023-06-10T17:48:27;21.80;99.90
21312;DHT22;18076;52.154;10.570;2023-06-10T17:50:53;21.80;99.90
21312;DHT22;18076;52.154;10.570;2023-06-10T17:53:18;21.70;99.90
21312;DHT22;18076;52.154;10.570;2023-06-10T17:55:44;21.70;99.90
21312;DHT22;18076;52.154;10.570;2023-06-10T17:58:09;21.80;99.90
21312;DHT22;18076;52.154;10.570;2023-06-10T18:00:35;21.90;99.90
21312;DHT22;18076;52.154;10.570;2023-06-10T18:03:00;21.80;99.90
21312;DHT22;18076;52.154;10.570;2023-06-10T18:05:26;21.70;99.90
21312;DHT22;18076;52.154;10.570;2023-06-10T18:07:51;21.60;99.90
21312;DHT22;18076;52.154;10.570;2023-06-10T18:10:17;21.60;99.90
21312;DHT22;18076;52.154;10.570;2023-06-10T18:12:43;21.50;99.90
21312;DHT22;18076;52.154;10.570;2023-06-10T18:15:08;21.50;99.90
21312;DHT22;18076;52.154;10.570;2023-06-10T18:17:34;21.50;99.90
21312;DHT22;18076;52.154;10.570;2023-06-10T18:20:04;21.50;99.90
21312;DHT22;18076;52.154;10.570;2023-06-10T18:22:29;21.50;99.90
21312;DHT22;18076;52.154;10.570;2023-06-10T18:24:56;21.70;99.90
21312;DHT22;18076;52.154;10.570;2023-06-10T18:27:21;21.60;99.90
21312;DHT22;18076;52.154;10.570;2023-06-10T18:29:47;21.60;99.90
21312;DHT22;18076;52.154;10.570;2023-06-10T18:32:13;21.60;99.90
21312;DHT22;18076;52.154;10.570;2023-06-10T18:34:38;21.60;99.90
21312;DHT22;18076;52.154;10.570;2023-06-10T18:37:05;21.70;99.90
21312;DHT22;18076;52.154;10.570;2023-06-10T18:39:31;21.60;99.90
21312;DHT22;18076;52.154;10.570;2023-06-10T18:41:58;21.60;99.90
21312;DHT22;18076;52.154;10.570;2023-06-10T18:44:26;21.60;99.90
21312;DHT22;18076;52.154;10.570;2023-06-10T18:46:51;21.60;99.90
21312;DHT22;18076;52.154;10.570;2023-06-10T18:49:17;21.60;99.90
21312;DHT22;18076;52.154;10.570;2023-06-10T18:51:42;21.60;99.90
21312;DHT22;18076;52.154;10.570;2023-06-10T18:54:08;21.60;99.90
21312;DHT22;18076;52.154;10.570;2023-06-10T18:56:41;21.50;99.90
21312;DHT22;18076;52.154;10.570;2023-06-10T18:59:06;21.50;99.90
21312;DHT22;18076;52.154;10.570;2023-06-10T19:01:32;21.40;99.90
21312;DHT22;18076;52.154;10.570;2023-06-10T19:03:58;21.30;99.90
21312;DHT22;18076;52.154;10.570;2023-06-10T19:06:24;21.30;99.90
21312;DHT22;18076;52.154;10.570;2023-06-10T19:08:50;21.10;99.90
21312;DHT22;18076;52.154;10.570;2023-06-10T19:11:15;21.00;99.90
21312;DHT22;18076;52.154;10.570;2023-06-10T19:13:42;21.00;99.90
21312;DHT22;18076;52.154;10.570;2023-06-10T19:16:07;21.00;99.90
21312;DHT22;18076;52.154;10.570;2023-06-10T19:18:33;20.90;99.90
21312;DHT22;18076;52.154;10.570;2023-06-10T19:20:58;20.90;99.90
21312;DHT22;18076;52.154;10.570;2023-06-10T19:23:24;20.90;99.90
21312;DHT22;18076;52.154;10.570;2023-06-10T19:25:49;20.90;99.90
21312;DHT22;18076;52.154;10.570;2023-06-10T19:28:15;20.70;99.90
21312;DHT22;18076;52.154;10.570;2023-06-10T19:30:41;20.60;99.90
21312;DHT22;18076;52.154;10.570;2023-06-10T19:33:07;20.60;99.90
21312;DHT22;18076;52.154;10.570;2023-06-10T19:35:32;20.60;99.90
21312;DHT22;18076;52.154;10.570;2023-06-10T19:37:59;20.60;99.90
21312;DHT22;18076;52.154;10.570;2023-06-10T19:40:24;20.60;99.90
21312;DHT22;18076;52.154;10.570;2023-06-10T19:42:50;20.60;99.90
21312;DHT22;18076;52.154;10.570;2023-06-10T19:45:16;20.60;99.90
21312;DHT22;18076;52.154;10.570;2023-06-10T19:47:42;20.50;99.90
21312;DHT22;18076;52.154;10.570;2023-06-10T19:50:07;20.50;99.90
21312;DHT22;18076;52.154;10.570;2023-06-10T19:52:33;20.40;99.90
21312;DHT22;18076;52.154;10.570;2023-06-10T19:54:59;20.30;99.90
21312;DHT22;18076;52.154;10.570;2023-06-10T19:57:24;20.30;99.90
21312;DHT22;18076;52.154;10.570;2023-06-10T19:59:50;20.20;99.90
21312;DHT22;18076;52.154;10.570;2023-06-10T20:02:15;20.10;99.90
21312;DHT22;18076;52.154;10.570;2023-06-10T20:04:41;20.10;99.90
21312;DHT22;18076;52.154;10.570;2023-06-10T20:07:06;20.00;99.90
21312;DHT22;18076;52.154;10.570;2023-06-10T20:09:32;20.00;99.90
21312;DHT22;18076;52.154;10.570;2023-06-10T20:11:57;19.90;99.90
21312;DHT22;18076;52.154;10.570;2023-06-10T20:14:23;19.80;99.90
21312;DHT22;18076;52.154;10.570;2023-06-10T20:16:48;19.60;99.90
21312;DHT22;18076;52.154;10.570;2023-06-10T20:19:14;19.60;99.90
21312;DHT22;18076;52.154;10.570;2023-06-10T20:21:39;19.50;99.90
21312;DHT22;18076;52.154;10.570;2023-06-10T20:24:06;19.40;99.90
21312;DHT22;18076;52.154;10.570;2023-06-10T20:26:32;19.10;99.90
21312;DHT22;18076;52.154;10.570;2023-06-10T20:28:58;18.80;99.90
21312;DHT22;18076;52.154;10.570;2023-06-10T20:31:24;18.80;99.90
21312;DHT22;18076;52.154;10.570;2023-06-10T20:33:51;18.90;99.90
21312;DHT22;18076;52.154;10.570;2023-06-10T20:36:17;18.90;99.90
21312;DHT22;18076;52.154;10.570;2023-06-10T20:38:44;19.00;99.90
21312;DHT22;18076;52.154;10.570;2023-06-10T20:41:10;19.00;99.90
21312;DHT22;18076;52.154;10.570;2023-06-10T20:43:36;19.00;99.90
21312;DHT22;18076;52.154;10.570;2023-06-10T20:46:02;19.10;99.90
21312;DHT22;18076;52.154;10.570;2023-06-10T20:48:27;19.10;99.90
21312;DHT22;18076;52.154;10.570;2023-06-10T20:50:53;19.10;99.90
21312;DHT22;18076;52.154;10.570;2023-06-10T20:53:18;19.10;99.90
21312;DHT22;18076;52.154;10.570;2023-06-10T20:55:44;19.10;99.90
21312;DHT22;18076;52.154;10.570;2023-06-10T20:58:10;19.10;99.90
21312;DHT22;18076;52.154;10.570;2023-06-10T21:00:35;19.00;99.90
21312;DHT22;18076;52.154;10.570;2023-06-10T21:03:01;19.00;99.90
21312;DHT22;18076;52.154;10.570;2023-06-10T21:05:26;18.90;99.90
21312;DHT22;18076;52.154;10.570;2023-06-10T21:07:52;18.90;99.90
21312;DHT22;18076;52.154;10.570;2023-06-10T21:10:17;18.90;99.90
21312;DHT22;18076;52.154;10.570;2023-06-10T21:12:43;18.80;99.90
21312;DHT22;18076;52.154;10.570;2023-06-10T21:15:08;18.70;99.90
21312;DHT22;18076;52.154;10.570;2023-06-10T21:17:34;18.70;99.90
21312;DHT22;18076;52.154;10.570;2023-06-10T21:20:00;18.60;99.90
21312;DHT22;18076;52.154;10.570;2023-06-10T21:22:25;18.60;99.90
21312;DHT22;18076;52.154;10.570;2023-06-10T21:24:51;18.60;99.90
21312;DHT22;18076;52.154;10.570;2023-06-10T21:27:16;18.50;99.90
21312;DHT22;18076;52.154;10.570;2023-06-10T21:29:42;18.60;99.90
21312;DHT22;18076;52.154;10.570;2023-06-10T21:32:08;18.50;99.90
21312;DHT22;18076;52.154;10.570;2023-06-10T21:34:34;18.50;99.90
21312;DHT22;18076;52.154;10.570;2023-06-10T21:36:59;18.40;99.90
21312;DHT22;18076;52.154;10.570;2023-06-10T21:39:25;18.40;99.90
21312;DHT22;18076;52.154;10.570;2023-06-10T21:41:50;18.30;99.90
21312;DHT22;18076;52.154;10.570;2023-06-10T21:44:16;18.20;99.90
21312;DHT22;18076;52.154;10.570;2023-06-10T21:46:41;18.20;99.90
21312;DHT22;18076;52.154;10.570;2023-06-10T21:49:07;18.10;99.90
21312;DHT22;18076;52.154;10.570;2023-06-10T21:51:32;18.00;99.90
21312;DHT22;18076;52.154;10.570;2023-06-10T21:53:58;18.00;99.90
21312;DHT22;18076;52.154;10.570;2023-06-10T21:56:25;17.90;99.90
21312;DHT22;18076;52.154;10.570;2023-06-10T21:58:51;17.90;99.90
21312;DHT22;18076;52.154;10.570;2023-06-10T22:01:17;17.80;99.90
21312;DHT22;18076;52.154;10.570;2023-06-10T22:03:43;17.80;99.90
21312;DHT22;18076;52.154;10.570;2023-06-10T22:06:09;17.80;99.90
21312;DHT22;18076;52.154;10.570;2023-06-10T22:08:34;17.80;99.90
21312;DHT22;18076;52.154;10.570;2023-06-10T22:11:00;17.70;99.90
21312;DHT22;18076;52.154;10.570;2023-06-10T22:13:26;17.80;99.90
21312;DHT22;18076;52.154;10.570;2023-06-10T22:15:52;17.80;99.90
21312;DHT22;18076;52.154;10.570;2023-06-10T22:18:17;17.80;99.90
21312;DHT22;18076;52.154;10.570;2023-06-10T22:20:42;17.80;99.90
21312;DHT22;18076;52.154;10.570;2023-06-10T22:23:08;17.80;99.90
21312;DHT22;18076;52.154;10.570;2023-06-10T22:25:33;17.80;99.90
21312;DHT22;18076;52.154;10.570;2023-06-10T22:27:59;17.80;99.90
21312;DHT22;18076;52.154;10.570;2023-06-10T22:30:25;17.80;99.90
21312;DHT22;18076;52.154;10.570;2023-06-10T22:32:50;17.80;99.90
21312;DHT22;18076;52.154;10.570;2023-06-10T22:35:16;17.80;99.90
21312;DHT22;18076;52.154;10.570;2023-06-10T22:37:41;17.70;99.90
21312;DHT22;18076;52.154;10.570;2023-06-10T22:40:07;17.70;99.90
21312;DHT22;18076;52.154;10.570;2023-06-10T22:42:32;17.70;99.90
21312;DHT22;18076;52.154;10.570;2023-06-10T22:44:58;17.70;99.90
21312;DHT22;18076;52.154;10.570;2023-06-10T22:47:23;17.60;99.90
21312;DHT22;18076;52.154;10.570;2023-06-10T22:49:49;17.60;99.90
21312;DHT22;18076;52.154;10.570;2023-06-10T22:52:15;17.60;99.90
21312;DHT22;18076;52.154;10.570;2023-06-10T22:54:41;17.70;99.90
21312;DHT22;18076;52.154;10.570;2023-06-10T22:57:06;17.80;99.90
21312;DHT22;18076;52.154;10.570;2023-06-10T22:59:32;17.90;99.90
21312;DHT22;18076;52.154;10.570;2023-06-10T23:01:58;17.90;99.90
21312;DHT22;18076;52.154;10.570;2023-06-10T23:04:23;17.90;99.90
21312;DHT22;18076;52.154;10.570;2023-06-10T23:06:49;17.80;99.90
21312;DHT22;18076;52.154;10.570;2023-06-10T23:09:14;17.60;99.90
21312;DHT22;18076;52.154;10.570;2023-06-10T23:11:40;17.50;99.90
21312;DHT22;18076;52.154;10.570;2023-06-10T23:14:06;17.40;99.90
21312;DHT22;18076;52.154;10.570;2023-06-10T23:16:34;17.40;99.90
21312;DHT22;18076;52.154;10.570;2023-06-10T23:18:59;17.30;99.90
21312;DHT22;18076;52.154;10.570;2023-06-10T23:21:25;17.40;99.90
21312;DHT22;18076;52.154;10.570;2023-06-10T23:23:54;17.40;99.90
21312;DHT22;18076;52.154;10.570;2023-06-10T23:26:22;17.50;99.90
21312;DHT22;18076;52.154;10.570;2023-06-10T23:28:47;17.40;99.90
21312;DHT22;18076;52.154;10.570;2023-06-10T23:31:13;17.30;99.90
21312;DHT22;18076;52.154;10.570;2023-06-10T23:33:38;17.30;99.90
21312;DHT22;18076;52.154;10.570;2023-06-10T23:36:05;17.30;99.90
21312;DHT22;18076;52.154;10.570;2023-06-10T23:38:31;17.30;99.90
21312;DHT22;18076;52.154;10.570;2023-06-10T23:40:56;17.20;99.90
21312;DHT22;18076;52.154;10.570;2023-06-10T23:43:22;17.30;99.90
21312;DHT22;18076;52.154;10.570;2023-06-10T23:45:48;17.30;99.90
21312;DHT22;18076;52.154;10.570;2023-06-10T23:48:13;17.30;99.90
21312;DHT22;18076;52.154;10.570;2023-06-10T23:50:39;17.30;99.90
21312;DHT22;18076;52.154;10.570;2023-06-10T23:53:05;17.30;99.90
21312;DHT22;18076;52.154;10.570;2023-06-10T23:55:31;17.20;99.90
21312;DHT22;18076;52.154;10.570;2023-06-10T23:57:57;17.10;99.90
